Time;durP1;ratioP1;P1;durP2;ratioP2;P2;SDS_P1;SDS_P2;PMS_P1;PMS_P2;Temp;Humidity;BMP_temperature;BMP_pressure;BME280_temperature;BME280_humidity;BME280_pressure;Samples;Min_cycle;Max_cycle;Signal;HPM_P1;HPM_P2
2021/09/13 00:01:34;;;;;;;;;0.00;0.00;;;;;27.26;40.22;100959.88;5077129;28;45360;-67
2021/09/13 00:04:00;;;;;;;;;0.00;0.00;;;;;27.28;40.13;100957.94;5077383;28;45330;-67
2021/09/13 00:06:25;;;;;;;;;0.67;0.67;;;;;27.28;40.62;100960.66;5076121;28;45419;-66
2021/09/13 00:08:50;;;;;;;;;0.00;0.00;;;;;27.27;40.18;100958.03;5077085;28;45385;-66
2021/09/13 00:11:16;;;;;;;;;0.00;0.00;;;;;27.26;40.44;100957.13;5077218;28;45471;-66
2021/09/13 00:13:42;;;;;;;;;0.00;0.00;;;;;27.26;40.74;100953.53;5077007;28;45926;-66
2021/09/13 00:16:08;;;;;;;;;0.67;0.67;;;;;27.22;39.99;100951.91;5076514;28;45563;-66
2021/09/13 00:18:33;;;;;;;;;1.00;1.00;;;;;27.24;40.55;100956.34;5076722;28;45522;-66
2021/09/13 00:20:59;;;;;;;;;0.00;0.00;;;;;27.26;40.19;100959.00;5076965;28;45440;-66
2021/09/13 00:23:25;;;;;;;;;0.00;0.00;;;;;27.27;40.67;100960.78;5077295;28;45533;-66
2021/09/13 00:25:51;;;;;;;;;0.00;0.00;;;;;27.25;39.98;100947.19;5076522;28;45401;-67
2021/09/13 00:28:17;;;;;;;;;0.00;0.00;;;;;27.25;39.90;100947.19;5076858;28;45564;-66
2021/09/13 00:30:42;;;;;;;;;0.00;0.00;;;;;27.24;39.90;100934.50;5076338;28;45718;-66
2021/09/13 00:33:08;;;;;;;;;0.00;0.00;;;;;27.25;40.39;100935.41;5058305;28;45840;-66
2021/09/13 00:35:33;;;;;;;;;0.00;0.00;;;;;27.23;40.40;100930.00;5058011;28;46131;-66
2021/09/13 00:38:00;;;;;;;;;0.00;0.00;;;;;27.23;39.93;100929.06;5076438;28;45412;-66
2021/09/13 00:40:25;;;;;;;;;0.00;0.00;;;;;27.23;40.51;100930.00;5076490;28;45483;-66
2021/09/13 00:42:51;;;;;;;;;0.00;0.00;;;;;27.23;40.62;100931.78;5076737;28;45751;-66
2021/09/13 00:45:17;;;;;;;;;0.67;0.33;;;;;27.21;40.42;100925.53;5076264;28;45337;-66
2021/09/13 00:47:42;;;;;;;;;0.00;0.00;;;;;27.22;40.37;100932.78;5058264;28;45470;-66
2021/09/13 00:50:08;;;;;;;;;0.00;0.00;;;;;27.22;40.52;100932.78;5076705;28;45393;-66
2021/09/13 00:52:33;;;;;;;;;0.00;0.00;;;;;27.18;40.37;100923.84;5076349;28;45480;-66
2021/09/13 00:55:00;;;;;;;;;0.00;0.00;;;;;27.21;39.83;100933.72;5057708;28;45461;-66
2021/09/13 00:57:27;;;;;;;;;0.00;0.00;;;;;27.20;39.92;100931.97;5076329;28;45744;-66
2021/09/13 00:59:53;;;;;;;;;0.00;0.00;;;;;27.20;39.86;100926.50;5076144;28;45505;-67
2021/09/13 01:02:19;;;;;;;;;0.00;0.00;;;;;27.19;40.48;100931.09;5076627;28;45413;-66
2021/09/13 01:04:44;;;;;;;;;0.00;0.00;;;;;27.18;40.02;100925.72;5076305;28;46580;-66
2021/09/13 01:07:10;;;;;;;;;0.00;0.00;;;;;27.19;39.99;100927.47;5076187;28;45405;-66
2021/09/13 01:09:36;;;;;;;;;0.00;0.00;;;;;27.17;40.07;100927.56;5076061;28;45532;-67
2021/09/13 01:12:01;;;;;;;;;0.00;0.00;;;;;27.10;39.95;100920.66;5058182;28;45470;-67
2021/09/13 01:14:41;;;;;;;;;0.00;0.00;;;;;27.16;40.11;100924.91;5076369;28;46420;-67
2021/09/13 01:17:09;;;;;;;;;0.00;0.00;;;;;27.16;39.83;100928.50;5076174;28;45600;-67
2021/09/13 01:19:35;;;;;;;;;0.00;0.00;;;;;27.16;40.23;100931.25;5074757;28;45481;-67
2021/09/13 01:22:02;;;;;;;;;0.00;0.00;;;;;27.15;40.08;100932.22;5076170;28;45404;-67
2021/09/13 01:24:29;;;;;;;;;0.00;0.00;;;;;27.15;40.23;100929.50;5057628;28;45493;-67
2021/09/13 01:27:08;;;;;;;;;0.00;0.00;;;;;27.15;39.96;100932.22;5075584;28;45458;-67
2021/09/13 01:29:34;;;;;;;;;0.00;0.00;;;;;27.14;40.62;100925.84;5075746;28;45521;-67
2021/09/13 01:32:01;;;;;;;;;0.00;0.00;;;;;27.14;39.91;100922.25;5076092;28;45411;-67
2021/09/13 01:34:27;;;;;;;;;0.00;0.00;;;;;27.13;40.05;100923.22;5057403;28;46296;-67
2021/09/13 01:36:52;;;;;;;;;0.00;0.00;;;;;27.13;40.43;100917.78;5075820;28;45408;-67
2021/09/13 01:39:19;;;;;;;;;0.00;0.00;;;;;27.11;40.04;100914.25;5075617;28;45661;-67
2021/09/13 01:41:45;;;;;;;;;0.00;0.00;;;;;27.10;40.45;100909.72;5075919;28;45538;-67
2021/09/13 01:44:13;;;;;;;;;0.67;0.67;;;;;27.11;40.53;100906.94;5075439;28;45832;-67
2021/09/13 01:46:39;;;;;;;;;0.00;0.00;;;;;27.11;39.74;100911.50;5073908;28;45428;-67
2021/09/13 01:49:07;;;;;;;;;0.00;0.00;;;;;27.10;40.55;100907.88;5056402;28;45497;-67
2021/09/13 01:51:33;;;;;;;;;0.00;0.00;;;;;27.11;39.98;100911.50;5055356;28;45462;-67
2021/09/13 01:53:59;;;;;;;;;0.00;0.00;;;;;27.10;40.51;100920.66;5054971;28;45405;-67
2021/09/13 01:56:25;;;;;;;;;0.33;0.33;;;;;27.08;40.08;100914.38;5037107;28;45519;-67
2021/09/13 01:58:50;;;;;;;;;0.00;0.00;;;;;27.10;40.41;100920.66;5055518;28;44876;-67
2021/09/13 02:01:18;;;;;;;;;0.00;0.00;;;;;27.08;39.97;100915.25;5055659;28;45473;-67
2021/09/13 02:03:43;;;;;;;;;0.00;0.00;;;;;27.10;40.42;100926.09;5054826;28;45527;-67
2021/09/13 02:06:08;;;;;;;;;0.00;0.00;;;;;27.07;40.06;100909.91;5054878;28;45496;-67
2021/09/13 02:08:34;;;;;;;;;0.00;0.00;;;;;27.07;40.60;100913.50;5054772;28;45355;-67
2021/09/13 02:11:00;;;;;;;;;0.00;0.00;;;;;27.10;40.56;100917.91;5054891;28;45419;-67
2021/09/13 02:13:25;;;;;;;;;0.00;0.00;;;;;27.10;40.46;100920.66;5054620;28;46135;-67
2021/09/13 02:15:50;;;;;;;;;0.00;0.00;;;;;27.10;39.89;100915.19;5055021;28;45382;-67
2021/09/13 02:18:16;;;;;;;;;0.00;0.00;;;;;27.10;40.41;100915.19;5055353;28;45417;-67
2021/09/13 02:20:41;;;;;;;;;0.00;0.00;;;;;27.10;39.85;100912.47;5055300;28;45409;-67
2021/09/13 02:23:06;;;;;;;;;0.00;0.00;;;;;27.11;40.51;100920.56;5054643;28;46434;-67
2021/09/13 02:25:32;;;;;;;;;0.00;0.00;;;;;27.10;40.41;100909.72;5055074;28;45409;-67
2021/09/13 02:27:57;;;;;;;;;0.00;0.00;;;;;27.10;40.62;100916.06;5054454;28;45498;-67
2021/09/13 02:30:22;;;;;;;;;0.00;0.00;;;;;27.11;39.83;100911.50;5054496;28;45445;-67
2021/09/13 02:32:49;;;;;;;;;0.00;0.00;;;;;27.10;40.50;100910.59;5054614;28;45821;-67
2021/09/13 02:35:14;;;;;;;;;0.00;0.00;;;;;27.08;40.01;100918.00;5036580;28;45414;-67
2021/09/13 02:37:40;;;;;;;;;0.00;0.00;;;;;27.10;40.41;100921.53;5054401;28;45467;-67
2021/09/13 02:40:06;;;;;;;;;0.00;0.00;;;;;27.09;40.06;100925.22;5054690;28;45452;-67
2021/09/13 02:42:32;;;;;;;;;0.00;0.00;;;;;27.10;39.92;100917.91;5054444;28;46088;-67
2021/09/13 02:44:59;;;;;;;;;0.00;0.00;;;;;27.08;40.22;100917.13;5054337;28;45471;-67
2021/09/13 02:47:24;;;;;;;;;0.00;0.00;;;;;27.09;40.39;100916.16;5054792;28;45455;-67
2021/09/13 02:49:50;;;;;;;;;0.00;0.00;;;;;27.08;40.04;100920.72;5054361;28;45399;-67
2021/09/13 02:52:15;;;;;;;;;0.00;0.00;;;;;27.09;39.91;100913.44;5054581;28;45469;-67
2021/09/13 02:54:41;;;;;;;;;0.00;0.00;;;;;27.08;40.60;100907.06;5054668;28;45713;-67
2021/09/13 02:57:07;;;;;;;;;0.00;0.00;;;;;27.05;40.60;100909.97;5054373;28;45380;-67
2021/09/13 02:59:33;;;;;;;;;0.00;0.00;;;;;27.07;40.42;100902.59;5054448;28;45431;-67
2021/09/13 03:01:58;;;;;;;;;0.00;0.00;;;;;27.07;40.22;100893.53;5053928;28;45778;-67
2021/09/13 03:04:23;;;;;;;;;0.00;0.00;;;;;27.07;40.31;100890.78;5054186;28;45622;-67
2021/09/13 03:06:51;;;;;;;;;0.00;0.00;;;;;27.07;40.02;100899.84;5054192;28;45461;-67
2021/09/13 03:09:18;;;;;;;;;0.00;0.00;;;;;27.07;40.40;100897.13;5054258;28;45837;-67
2021/09/13 03:11:43;;;;;;;;;0.00;0.00;;;;;27.04;40.37;100899.13;5054121;28;45652;-67
2021/09/13 03:14:10;;;;;;;;;0.00;0.00;;;;;27.07;40.40;100907.19;5054013;28;45362;-67
2021/09/13 03:16:35;;;;;;;;;0.00;0.00;;;;;27.05;39.84;100904.50;5054122;28;45430;-67
2021/09/13 03:19:01;;;;;;;;;0.00;0.00;;;;;27.06;40.53;100908.13;5054636;28;45409;-67
2021/09/13 03:21:26;;;;;;;;;0.00;0.00;;;;;27.04;40.01;100888.22;5054228;28;45682;-67
2021/09/13 03:23:52;;;;;;;;;0.00;0.00;;;;;27.04;40.07;100899.13;5053858;28;45424;-67
2021/09/13 03:26:17;;;;;;;;;0.00;0.00;;;;;27.06;40.54;100891.75;5035689;28;45521;-67
2021/09/13 03:28:43;;;;;;;;;0.00;0.00;;;;;27.04;40.17;100893.66;5035573;28;45536;-67
2021/09/13 03:31:08;;;;;;;;;0.00;0.00;;;;;27.05;40.30;100890.00;5035393;28;45634;-67
2021/09/13 03:33:34;;;;;;;;;0.00;0.00;;;;;27.04;40.23;100888.22;5035924;28;45721;-67
2021/09/13 03:36:00;;;;;;;;;0.00;0.00;;;;;27.03;40.64;100883.72;5053967;28;45542;-67
2021/09/13 03:38:25;;;;;;;;;0.00;0.00;;;;;27.05;40.07;100884.53;5053692;28;45459;-67
2021/09/13 03:40:50;;;;;;;;;0.00;0.00;;;;;27.04;40.10;100882.75;5053990;28;45365;-67
2021/09/13 03:43:16;;;;;;;;;0.00;0.00;;;;;27.02;40.15;100885.56;5056501;28;45718;-67
2021/09/13 03:45:42;;;;;;;;;0.00;0.00;;;;;27.04;39.95;100882.75;5060119;28;45524;-67
2021/09/13 03:48:07;;;;;;;;;0.00;0.00;;;;;27.04;40.50;100885.47;5057429;28;45798;-67
2021/09/13 03:50:33;;;;;;;;;0.00;0.00;;;;;27.01;40.05;100881.06;5056724;28;45519;-67
2021/09/13 03:52:58;;;;;;;;;0.00;0.00;;;;;27.04;40.16;100888.22;5056557;28;45463;-67
2021/09/13 03:55:23;;;;;;;;;0.00;0.00;;;;;27.04;40.01;100880.03;5057224;28;45469;-67
2021/09/13 03:57:49;;;;;;;;;0.00;0.00;;;;;27.02;40.07;100879.22;5057236;28;45331;-67
2021/09/13 04:00:15;;;;;;;;;0.00;0.00;;;;;27.01;40.38;100883.81;5056936;28;45806;-67
2021/09/13 04:02:46;;;;;;;;;0.00;0.00;;;;;27.03;40.63;100892.78;5056983;28;45436;-67
2021/09/13 04:05:16;;;;;;;;;0.00;0.00;;;;;27.03;40.11;100886.47;5056917;28;45502;-67
2021/09/13 04:11:05;;;;;;;;;0.00;0.00;;;;;27.04;40.10;100888.22;5056375;28;45950;-67
2021/09/13 04:13:15;;;;;;;;;0.00;0.00;;;;;27.04;40.20;100890.94;5053950;28;45463;-67
2021/09/13 04:15:40;;;;;;;;;0.00;0.00;;;;;27.04;40.16;100888.22;5056991;28;45587;-67
2021/09/13 04:18:05;;;;;;;;;0.00;0.00;;;;;27.04;40.54;100893.66;5057061;28;45447;-67
2021/09/13 04:20:31;;;;;;;;;0.00;0.00;;;;;27.03;40.31;100881.00;5056546;28;45956;-67
2021/09/13 04:22:57;;;;;;;;;0.00;0.00;;;;;27.02;39.86;100885.56;5056434;28;45772;-67
2021/09/13 04:25:22;;;;;;;;;0.00;0.00;;;;;27.01;40.05;100875.63;5056701;28;45554;-67
2021/09/13 04:27:48;;;;;;;;;0.00;0.00;;;;;27.01;40.11;100866.56;5056528;28;45495;-67
2021/09/13 04:30:13;;;;;;;;;0.00;0.00;;;;;26.98;40.46;100867.56;5038286;28;47357;-67
2021/09/13 04:32:38;;;;;;;;;0.00;0.00;;;;;27.01;40.18;100866.56;5056468;28;45414;-67
2021/09/13 04:35:04;;;;;;;;;0.00;0.00;;;;;27.01;40.07;100866.56;5056548;28;45404;-67
2021/09/13 04:37:29;;;;;;;;;0.00;0.00;;;;;27.00;40.44;100871.09;5038006;28;45401;-67
2021/09/13 04:39:55;;;;;;;;;0.00;0.00;;;;;27.00;39.90;100868.38;5056240;28;45210;-67
2021/09/13 04:42:20;;;;;;;;;0.00;0.00;;;;;26.99;40.49;100866.63;5037762;28;45412;-67
2021/09/13 04:44:45;;;;;;;;;0.00;0.00;;;;;26.97;40.16;100867.69;5056308;28;45463;-67
2021/09/13 04:47:11;;;;;;;;;0.00;0.00;;;;;26.99;40.51;100873.94;5056596;28;45469;-67
2021/09/13 04:49:36;;;;;;;;;0.00;0.00;;;;;26.99;40.55;100879.41;5055880;28;45827;-67
2021/09/13 04:52:03;;;;;;;;;0.00;0.00;;;;;26.98;40.51;100878.50;5055995;28;45433;-67
2021/09/13 04:54:28;;;;;;;;;0.00;0.00;;;;;26.94;39.97;100877.78;5055540;28;45523;-67
2021/09/13 04:56:54;;;;;;;;;0.00;0.00;;;;;26.97;40.49;100875.88;5056114;28;45428;-67
2021/09/13 04:59:19;;;;;;;;;0.00;0.00;;;;;26.96;40.00;100879.53;5055492;28;45545;-67
2021/09/13 05:01:51;;;;;;;;;0.00;0.00;;;;;26.96;40.00;100876.81;5055731;28;45502;-67
2021/09/13 05:04:16;;;;;;;;;0.00;0.00;;;;;26.97;40.54;100873.13;5038011;28;45510;-67
2021/09/13 05:06:42;;;;;;;;;0.00;0.00;;;;;26.95;40.22;100859.56;5056079;28;45613;-67
2021/09/13 05:09:07;;;;;;;;;0.00;0.00;;;;;26.94;40.04;100861.41;5055446;28;46503;-67
2021/09/13 05:11:34;;;;;;;;;0.00;0.00;;;;;26.95;39.80;100865.03;5037816;28;45632;-67
2021/09/13 05:14:00;;;;;;;;;0.00;0.00;;;;;26.92;39.92;100860.63;5055919;28;45545;-67
2021/09/13 05:16:25;;;;;;;;;0.00;0.00;;;;;26.94;40.00;100861.41;5056008;28;45483;-67
2021/09/13 05:18:50;;;;;;;;;0.00;0.00;;;;;26.92;40.09;100863.34;5055885;28;45407;-67
2021/09/13 05:21:16;;;;;;;;;0.00;0.00;;;;;26.93;40.38;100859.63;5055551;28;45534;-67
2021/09/13 05:23:41;;;;;;;;;0.00;0.00;;;;;26.93;40.26;100861.50;5055944;28;45385;-67
2021/09/13 05:26:07;;;;;;;;;0.00;0.00;;;;;26.92;40.28;100856.97;5055920;28;45448;-67
2021/09/13 05:28:38;;;;;;;;;0.00;0.00;;;;;26.93;40.09;100858.75;5055069;28;45691;-67
2021/09/13 05:31:04;;;;;;;;;0.00;0.00;;;;;26.92;40.61;100855.16;5055058;28;45500;-67
2021/09/13 05:33:31;;;;;;;;;0.00;0.00;;;;;26.90;40.49;100843.41;5055361;28;45459;-67
2021/09/13 05:35:56;;;;;;;;;0.00;0.00;;;;;26.92;40.05;100851.50;5055595;28;45927;-67
2021/09/13 05:38:21;;;;;;;;;0.00;0.00;;;;;26.91;40.68;100856.09;5057739;28;45515;-67
2021/09/13 05:40:47;;;;;;;;;0.00;0.00;;;;;26.92;40.48;100855.16;5055169;28;45495;-67
2021/09/13 05:43:12;;;;;;;;;0.00;0.00;;;;;26.92;40.30;100855.16;5055268;28;45525;-67
2021/09/13 05:45:38;;;;;;;;;0.00;0.00;;;;;26.92;40.28;100859.72;5055091;28;45560;-67
2021/09/13 05:48:05;;;;;;;;;0.00;0.00;;;;;26.92;40.18;100852.44;5054912;28;45895;-67
2021/09/13 05:50:30;;;;;;;;;0.00;0.00;;;;;26.92;40.16;100851.50;5055041;28;45438;-67
2021/09/13 05:52:56;;;;;;;;;0.00;0.00;;;;;26.92;40.67;100857.88;5037004;28;45699;-67
2021/09/13 05:55:22;;;;;;;;;0.00;0.00;;;;;26.92;40.51;100852.44;5055158;28;45600;-65
2021/09/13 05:57:48;;;;;;;;;0.00;0.00;;;;;26.94;40.28;100860.50;5054964;28;45367;-67
2021/09/13 06:00:14;;;;;;;;;0.00;0.00;;;;;26.93;40.23;100856.03;5054644;28;45531;-67
2021/09/13 06:02:40;;;;;;;;;0.00;0.00;;;;;26.93;40.54;100862.38;5055249;28;45833;-67
2021/09/13 06:05:06;;;;;;;;;0.00;0.00;;;;;26.93;40.53;100862.38;5054496;28;45535;-67
2021/09/13 06:07:31;;;;;;;;;0.00;0.00;;;;;26.91;40.34;100856.09;5054736;28;45834;-67
2021/09/13 06:09:58;;;;;;;;;0.00;0.00;;;;;26.91;40.12;100861.56;5054410;28;45489;-67
2021/09/13 06:12:23;;;;;;;;;0.00;0.00;;;;;26.91;40.70;100858.84;5055038;28;45476;-68
2021/09/13 06:14:49;;;;;;;;;0.00;0.00;;;;;26.91;40.27;100857.97;5054745;28;45433;-67
2021/09/13 06:17:14;;;;;;;;;0.00;0.00;;;;;26.92;40.09;100867.91;5053205;28;45663;-67
2021/09/13 06:19:40;;;;;;;;;0.00;0.00;;;;;26.92;40.63;100860.63;5054700;28;45445;-67
2021/09/13 06:22:07;;;;;;;;;0.00;0.00;;;;;26.94;40.45;100861.41;5054913;28;45772;-67
2021/09/13 06:24:32;;;;;;;;;0.00;0.00;;;;;26.93;40.41;100858.75;5054613;28;45407;-67
2021/09/13 06:26:58;;;;;;;;;0.00;0.00;;;;;26.94;40.08;100866.88;5036018;28;46171;-67
2021/09/13 06:29:23;;;;;;;;;0.00;0.00;;;;;26.93;40.41;100865.09;5035672;28;45407;-67
2021/09/13 06:31:49;;;;;;;;;0.00;0.00;;;;;26.92;40.55;100863.34;5054090;28;45571;-67
2021/09/13 06:34:17;;;;;;;;;0.00;0.00;;;;;26.94;40.64;100866.88;5054529;28;45533;-67
2021/09/13 06:36:44;;;;;;;;;0.00;0.00;;;;;26.96;39.98;100874.09;5054344;28;46594;-67
2021/09/13 06:39:11;;;;;;;;;0.00;0.00;;;;;26.94;39.84;100877.78;5053943;28;45451;-67
2021/09/13 06:41:36;;;;;;;;;0.00;0.00;;;;;26.94;40.53;100880.53;5054447;28;45402;-67
2021/09/13 06:44:02;;;;;;;;;0.00;0.00;;;;;26.94;39.97;100885.97;5054209;28;45524;-67
2021/09/13 06:48:59;;;;;;;;;0.00;0.00;;;;;26.94;40.15;100883.25;5054042;28;45454;-67
2021/09/13 06:51:24;;;;;;;;;0.00;0.00;;;;;26.90;40.21;100886.19;5053525;28;45869;-67
2021/09/13 06:53:50;;;;;;;;;5.00;3.33;;;;;26.78;39.84;100893.16;5053502;28;45433;-66
2021/09/13 06:56:15;;;;;;;;;8.00;7.00;;;;;26.63;40.23;100885.78;5053399;28;45779;-66
2021/09/13 06:58:41;;;;;;;;;6.67;6.00;;;;;26.53;40.34;100885.31;5035687;28;45623;-66
2021/09/13 07:01:07;;;;;;;;;7.67;6.33;;;;;26.39;40.54;100882.41;5053444;28;45521;-66
2021/09/13 07:03:33;;;;;;;;;7.00;7.00;;;;;26.23;39.73;100883.16;5053860;28;45358;-66
2021/09/13 07:05:58;;;;;;;;;11.67;11.00;;;;;26.05;39.81;100876.75;5034818;28;47521;-66
2021/09/13 07:08:24;;;;;;;;;10.67;10.67;;;;;25.82;39.73;100869.66;5036069;28;45531;-65
2021/09/13 07:10:49;;;;;;;;;11.33;11.33;;;;;25.69;40.30;100879.34;5053085;28;45467;-65
2021/09/13 07:13:15;;;;;;;;;13.00;13.00;;;;;25.47;40.31;100872.19;5053489;28;45360;-65
2021/09/13 07:15:40;;;;;;;;;13.33;13.33;;;;;25.32;40.53;100879.22;5035128;28;45542;-65
2021/09/13 07:18:06;;;;;;;;;12.33;10.00;;;;;25.18;40.89;100878.03;5056791;28;45526;-65
2021/09/13 07:20:31;;;;;;;;;11.00;11.00;;;;;25.01;40.98;100874.22;5056665;28;45531;-65
2021/09/13 07:22:57;;;;;;;;;15.00;15.00;;;;;24.85;41.61;100882.16;5038574;28;45393;-66
2021/09/13 07:25:23;;;;;;;;;13.67;12.00;;;;;24.73;41.69;100883.56;5038000;28;45481;-66
2021/09/13 07:27:48;;;;;;;;;13.67;12.00;;;;;24.65;41.63;100879.41;5056490;28;45438;-66
2021/09/13 07:30:14;;;;;;;;;13.67;12.33;;;;;24.51;42.05;100880.00;5038273;28;45490;-66
2021/09/13 07:32:40;;;;;;;;;13.00;13.00;;;;;24.42;42.22;100874.91;5075654;28;45494;-66
2021/09/13 07:35:08;;;;;;;;;10.67;10.33;;;;;24.38;42.47;100876.88;5076951;28;45015;-65
2021/09/13 07:37:35;;;;;;;;;7.33;7.33;;;;;24.40;42.58;100872.25;5058482;28;45406;-66
2021/09/13 07:40:00;;;;;;;;;8.00;8.00;;;;;24.48;42.64;100872.81;5076848;28;45466;-65
2021/09/13 07:42:26;;;;;;;;;6.00;5.67;;;;;24.53;42.41;100853.63;5076770;28;45723;-65
2021/09/13 07:44:51;;;;;;;;;5.67;5.67;;;;;24.63;42.42;100865.00;5076225;28;45875;-66
2021/09/13 07:47:19;;;;;;;;;7.00;6.33;;;;;24.69;42.49;100854.75;5076270;28;45500;-66
2021/09/13 07:49:44;;;;;;;;;9.33;9.33;;;;;24.74;42.54;100852.72;5058904;28;45476;-66
2021/09/13 07:52:10;;;;;;;;;5.67;4.33;;;;;24.83;42.48;100867.75;5076333;28;45433;-66
2021/09/13 07:54:35;;;;;;;;;6.67;6.67;;;;;24.90;42.10;100869.22;5075519;28;46135;-66
2021/09/13 07:57:00;;;;;;;;;6.33;6.33;;;;;24.97;42.49;100869.00;5076469;28;45495;-64
2021/09/13 07:59:30;;;;;;;;;5.00;4.33;;;;;25.03;42.15;100855.13;5057315;28;45455;-66
2021/09/13 08:01:55;;;;;;;;;9.00;9.00;;;;;25.09;42.23;100842.13;5058049;28;45468;-65
2021/09/13 08:04:20;;;;;;;;;7.33;7.33;;;;;25.14;41.88;100850.06;5076332;28;46081;-66
2021/09/13 08:06:46;;;;;;;;;10.00;6.67;;;;;25.18;41.75;100843.53;5076022;28;45487;-67
2021/09/13 08:09:11;;;;;;;;;8.67;8.33;;;;;25.19;41.91;100839.88;5075990;28;45517;-64
2021/09/13 08:11:38;;;;;;;;;7.33;7.33;;;;;25.21;41.90;100832.56;5057387;28;45680;-65
2021/09/13 08:14:04;;;;;;;;;7.67;7.67;;;;;25.25;41.64;100842.34;5075398;28;45566;-66
2021/09/13 08:16:29;;;;;;;;;6.00;6.00;;;;;25.30;41.37;100839.41;5075812;28;45461;-66
2021/09/13 08:18:57;;;;;;;;;9.00;9.00;;;;;25.29;41.60;100843.97;5075873;28;45353;-67
2021/09/13 08:21:23;;;;;;;;;8.00;6.00;;;;;25.28;41.48;100836.75;5076188;28;44959;-66
2021/09/13 08:23:48;;;;;;;;;6.67;5.33;;;;;25.31;41.49;100841.19;5075420;28;45988;-66
2021/09/13 08:26:14;;;;;;;;;10.33;10.33;;;;;25.31;41.51;100831.19;5075314;28;45473;-66
2021/09/13 08:28:52;;;;;;;;;8.33;8.33;;;;;25.30;41.45;100836.69;5056550;28;45775;-66
2021/09/13 08:31:18;;;;;;;;;7.00;6.00;;;;;25.30;41.20;100845.72;5075428;28;45523;-67
2021/09/13 08:33:43;;;;;;;;;8.67;8.67;;;;;25.30;41.49;100840.28;5075096;28;46529;-67
2021/09/13 08:36:10;;;;;;;;;7.33;7.33;;;;;25.30;41.26;100833.97;5075502;28;45530;-66
2021/09/13 08:38:35;;;;;;;;;9.33;9.33;;;;;25.33;41.02;100833.84;5075289;28;45442;-65
2021/09/13 08:41:01;;;;;;;;;7.33;7.33;;;;;25.31;40.97;100841.19;5075161;28;45407;-66
2021/09/13 08:43:28;;;;;;;;;7.67;7.67;;;;;25.32;41.41;100835.66;5057303;28;46442;-66
2021/09/13 08:53:19;;;;;;;;;6.00;5.00;;;;;25.43;40.83;100850.59;5074615;28;45430;-66
2021/09/13 08:55:45;;;;;;;;;8.00;6.00;;;;;25.51;41.11;100862.03;5057793;28;45419;-65
2021/09/13 08:58:21;;;;;;;;;5.00;5.00;;;;;25.58;41.07;100866.25;5040658;28;45464;-69
2021/09/13 09:00:48;;;;;;;;;4.33;4.33;;;;;25.62;41.10;100865.16;5034735;28;45571;-66
2021/09/13 09:03:14;;;;;;;;;5.67;5.67;;;;;25.67;41.01;100868.56;5034566;28;45437;-66
2021/09/13 09:05:44;;;;;;;;;2.33;2.33;;;;;25.70;40.92;100864.78;5034711;28;45538;-66
2021/09/13 09:08:12;;;;;;;;;5.00;5.00;;;;;25.75;40.93;100858.19;5035313;28;45525;-67
2021/09/13 09:10:38;;;;;;;;;3.33;3.33;;;;;25.77;41.29;100857.19;5046874;28;45737;-65
2021/09/13 09:13:13;;;;;;;;;1.67;1.67;;;;;25.85;41.08;100868.63;5052601;28;45508;-66
2021/09/13 09:16:00;;;;;;;;;2.67;2.67;;;;;25.89;40.81;100871.13;5017217;28;45462;-65
2021/09/13 09:18:39;;;;;;;;;2.00;2.00;;;;;25.94;40.67;100863.66;5034489;28;45865;-67
2021/09/13 09:21:05;;;;;;;;;2.00;2.00;;;;;25.94;40.99;100862.78;5035312;28;45534;-67
2021/09/13 09:23:56;;;;;;;;;1.67;1.67;;;;;25.79;40.68;100818.03;5034890;28;46755;-67
2021/09/13 09:26:24;;;;;;;;;2.00;2.00;;;;;26.02;40.44;100851.50;5020605;28;45435;-66
2021/09/13 09:28:50;;;;;;;;;1.67;1.67;;;;;26.06;40.43;100856.72;5035423;28;45444;-66
2021/09/13 09:31:40;;;;;;;;;0.67;0.67;;;;;26.10;40.79;100852.00;5016618;28;45872;-66
2021/09/13 09:34:20;;;;;;;;;0.67;0.67;;;;;26.12;40.30;100850.97;5034374;28;46107;-66
2021/09/13 09:36:57;;;;;;;;;2.00;2.00;;;;;26.16;40.61;100851.72;5034688;28;45508;-66
2021/09/13 09:39:28;;;;;;;;;0.67;0.67;;;;;26.20;40.52;100846.97;5035119;28;45420;-65
2021/09/13 09:41:56;;;;;;;;;0.00;0.00;;;;;26.22;40.21;100850.50;5055044;28;45447;-65
2021/09/13 09:44:21;;;;;;;;;2.00;0.67;;;;;26.23;40.59;100841.38;5050439;28;46701;-66
2021/09/13 09:46:49;;;;;;;;;0.67;0.67;;;;;26.26;40.31;100835.78;5050493;28;45511;-66
2021/09/13 09:49:19;;;;;;;;;0.67;0.67;;;;;26.30;40.39;100837.41;5040965;28;45504;-66
2021/09/13 09:51:55;;;;;;;;;0.33;0.33;;;;;26.32;40.33;100828.19;5034756;28;45572;-65
2021/09/13 09:54:23;;;;;;;;;0.33;0.33;;;;;26.32;40.39;100824.56;5044180;28;47143;-66
2021/09/13 09:56:58;;;;;;;;;0.33;0.33;;;;;26.37;40.39;100827.06;5019479;28;46149;-64
2021/09/13 09:59:32;;;;;;;;;0.00;0.00;;;;;26.39;40.25;100826.00;5054980;28;45525;-64
2021/09/13 10:01:58;;;;;;;;;0.33;0.33;;;;;26.39;40.47;100814.22;5054247;28;45482;-64
2021/09/13 10:04:28;;;;;;;;;0.00;0.00;;;;;26.40;40.27;100805.97;5049570;28;45608;-67
2021/09/13 10:06:57;;;;;;;;;0.67;0.67;;;;;26.36;39.86;100785.28;5027179;28;45461;-66
2021/09/13 10:09:24;;;;;;;;;0.33;0.33;;;;;26.47;40.52;100801.97;5042482;28;45552;-66
2021/09/13 10:11:54;;;;;;;;;0.00;0.00;;;;;26.48;40.33;100798.28;5050460;28;45397;-67
2021/09/13 10:14:26;;;;;;;;;0.00;0.00;;;;;26.49;40.59;100794.56;5041993;28;48064;-66
2021/09/13 10:16:52;;;;;;;;;2.00;0.33;;;;;26.50;40.00;100801.81;5046788;28;45481;-66
2021/09/13 10:19:20;;;;;;;;;0.00;0.00;;;;;26.52;39.86;100810.81;5053617;28;45607;-66
2021/09/13 10:21:45;;;;;;;;;0.33;0.33;;;;;26.52;39.99;100799.91;5054116;28;45386;-65
2021/09/13 10:24:19;;;;;;;;;0.00;0.00;;;;;26.55;40.27;100805.16;5053916;28;45410;-67
2021/09/13 10:26:51;;;;;;;;;0.00;0.00;;;;;26.56;40.61;100795.13;5054170;28;45415;-69
2021/09/13 10:29:20;;;;;;;;;0.00;0.00;;;;;26.59;40.52;100791.44;5036464;28;45542;-67
2021/09/13 10:31:46;;;;;;;;;0.00;0.00;;;;;26.62;41.00;100792.16;5056467;28;45473;-67
2021/09/13 10:34:36;;;;;;;;;0.00;0.00;;;;;26.49;40.94;100763.72;5052579;28;45710;-68
2021/09/13 10:37:10;;;;;;;;;0.33;0.33;;;;;26.65;40.33;100777.47;5065560;27;45868;-68
2021/09/13 10:39:56;;;;;;;;;1.00;1.00;;;;;26.69;40.79;100784.53;5073660;28;45337;-67
2021/09/13 10:42:28;;;;;;;;;0.00;0.00;;;;;26.70;40.90;100778.09;5074539;28;45400;-67
2021/09/13 10:45:12;;;;;;;;;0.00;0.00;;;;;26.73;40.72;100786.13;5074600;28;46266;-66
2021/09/13 10:47:40;;;;;;;;;0.00;0.00;;;;;26.74;40.16;100782.41;5055994;28;45542;-67
2021/09/13 10:50:41;;;;;;;;;0.33;0.33;;;;;26.76;40.73;100780.50;5067864;28;45481;-67
2021/09/13 10:53:22;;;;;;;;;0.00;0.00;;;;;26.79;40.31;100776.75;5054812;28;45481;-67
2021/09/13 10:55:49;;;;;;;;;0.00;0.00;;;;;26.80;40.13;100771.19;5057259;28;45355;-67
2021/09/13 10:58:44;;;;;;;;;;;;;;;;;;;;;
2021/09/13 11:01:08;;;;;;;;;0.67;0.67;;;;;26.85;40.54;100763.63;5057415;28;45398;-68
2021/09/13 11:03:36;;;;;;;;;0.33;0.33;;;;;26.86;41.00;100765.38;5057845;28;45421;-67
2021/09/13 11:06:12;;;;;;;;;0.00;0.00;;;;;26.91;41.12;100763.31;5056823;28;45535;-68
2021/09/13 11:08:37;;;;;;;;;0.00;0.00;;;;;26.93;40.82;100758.66;5057849;28;45478;-67
2021/09/13 11:11:17;;;;;;;;;0.00;0.00;;;;;26.93;41.06;100747.72;5057568;28;45523;-67
2021/09/13 11:13:45;;;;;;;;;0.00;0.00;;;;;26.95;40.81;100747.66;5057697;28;45560;-66
2021/09/13 11:16:16;;;;;;;;;0.00;0.00;;;;;26.96;40.66;100743.94;5057495;28;45414;-67
2021/09/13 11:18:43;;;;;;;;;0.00;0.00;;;;;26.99;40.50;100740.19;5057393;28;45890;-67
2021/09/13 11:21:24;;;;;;;;;1.00;0.00;;;;;26.99;40.96;100732.88;5056879;28;45533;-68
2021/09/13 11:24:04;;;;;;;;;0.00;0.00;;;;;27.01;40.51;100741.00;5058411;28;45346;-67
2021/09/13 11:26:35;;;;;;;;;0.00;0.00;;;;;27.04;41.06;100735.34;5056499;28;45485;-68
2021/09/13 11:29:19;;;;;;;;;0.00;0.00;;;;;27.04;40.56;100729.88;5056486;28;45736;-67
2021/09/13 11:31:51;;;;;;;;;0.00;0.00;;;;;27.08;40.31;100731.47;5056882;28;45399;-68
2021/09/13 11:34:16;;;;;;;;;0.33;0.00;;;;;27.09;40.77;100727.81;5056763;28;45564;-67
2021/09/13 11:37:00;;;;;;;;;0.33;0.00;;;;;27.05;40.91;100716.16;5056582;28;45699;-67
2021/09/13 11:39:37;;;;;;;;;0.00;0.00;;;;;27.12;40.94;100717.56;5056254;28;45492;-69
2021/09/13 11:42:11;;;;;;;;;0.25;0.00;;;;;27.17;40.34;100735.53;5056940;28;45467;-69